sensor_id;sensor_type;location;lat;lon;timestamp;temperature;humidity
20726;DHT22;10524;48.132;8.518;2023-03-01T00:02:06;-7.80;99.90
20726;DHT22;10524;48.132;8.518;2023-03-01T00:04:32;-7.80;99.90
20726;DHT22;10524;48.132;8.518;2023-03-01T00:06:58;-7.90;99.90
20726;DHT22;10524;48.132;8.518;2023-03-01T00:09:23;-7.90;99.90
20726;DHT22;10524;48.132;8.518;2023-03-01T00:11:49;-7.80;99.90
20726;DHT22;10524;48.132;8.518;2023-03-01T00:14:15;-7.80;99.90
20726;DHT22;10524;48.132;8.518;2023-03-01T00:16:43;-7.80;99.90
20726;DHT22;10524;48.132;8.518;2023-03-01T00:19:17;-7.90;99.90
20726;DHT22;10524;48.132;8.518;2023-03-01T00:21:43;-7.90;99.90
20726;DHT22;10524;48.132;8.518;2023-03-01T00:24:09;-7.80;99.90
20726;DHT22;10524;48.132;8.518;2023-03-01T00:26:36;-7.70;99.90
20726;DHT22;10524;48.132;8.518;2023-03-01T00:29:02;-7.50;99.90
20726;DHT22;10524;48.132;8.518;2023-03-01T00:31:29;-7.40;99.90
20726;DHT22;10524;48.132;8.518;2023-03-01T00:33:57;-7.40;99.90
20726;DHT22;10524;48.132;8.518;2023-03-01T00:36:25;-7.50;99.90
20726;DHT22;10524;48.132;8.518;2023-03-01T00:38:51;-7.50;99.90
20726;DHT22;10524;48.132;8.518;2023-03-01T00:41:18;-7.50;99.90
20726;DHT22;10524;48.132;8.518;2023-03-01T00:43:44;-7.60;99.90
20726;DHT22;10524;48.132;8.518;2023-03-01T00:46:15;-7.80;99.90
20726;DHT22;10524;48.132;8.518;2023-03-01T00:48:41;-7.90;99.90
20726;DHT22;10524;48.132;8.518;2023-03-01T00:51:08;-7.90;99.90
20726;DHT22;10524;48.132;8.518;2023-03-01T00:53:35;-8.10;99.90
20726;DHT22;10524;48.132;8.518;2023-03-01T00:56:01;-8.10;99.90
20726;DHT22;10524;48.132;8.518;2023-03-01T00:58:26;-8.10;99.90
20726;DHT22;10524;48.132;8.518;2023-03-01T01:00:52;-8.00;99.90
20726;DHT22;10524;48.132;8.518;2023-03-01T01:03:18;-7.90;99.90
20726;DHT22;10524;48.132;8.518;2023-03-01T01:05:44;-7.70;99.90
20726;DHT22;10524;48.132;8.518;2023-03-01T01:08:10;-7.60;99.90
20726;DHT22;10524;48.132;8.518;2023-03-01T01:10:35;-7.40;99.90
20726;DHT22;10524;48.132;8.518;2023-03-01T01:13:01;-7.30;99.90
20726;DHT22;10524;48.132;8.518;2023-03-01T01:15:27;-7.30;99.90
20726;DHT22;10524;48.132;8.518;2023-03-01T01:17:53;-7.20;99.90
20726;DHT22;10524;48.132;8.518;2023-03-01T01:20:20;-7.20;99.90
20726;DHT22;10524;48.132;8.518;2023-03-01T01:22:45;-7.20;99.90
20726;DHT22;10524;48.132;8.518;2023-03-01T01:25:11;-7.10;99.90
20726;DHT22;10524;48.132;8.518;2023-03-01T01:27:36;-7.20;99.90
20726;DHT22;10524;48.132;8.518;2023-03-01T01:30:03;-7.10;99.90
20726;DHT22;10524;48.132;8.518;2023-03-01T01:32:29;-7.00;99.90
20726;DHT22;10524;48.132;8.518;2023-03-01T01:34:55;-6.90;99.90
20726;DHT22;10524;48.132;8.518;2023-03-01T01:37:21;-6.90;99.90
20726;DHT22;10524;48.132;8.518;2023-03-01T01:39:46;-6.90;99.90
20726;DHT22;10524;48.132;8.518;2023-03-01T01:42:16;-6.90;99.90
20726;DHT22;10524;48.132;8.518;2023-03-01T01:44:45;-6.90;99.90
20726;DHT22;10524;48.132;8.518;2023-03-01T01:47:20;-6.90;99.90
20726;DHT22;10524;48.132;8.518;2023-03-01T01:49:50;-6.80;99.90
20726;DHT22;10524;48.132;8.518;2023-03-01T01:57:38;-6.70;99.90
20726;DHT22;10524;48.132;8.518;2023-03-01T02:00:07;-6.60;99.90
20726;DHT22;10524;48.132;8.518;2023-03-01T02:02:33;-6.50;99.90
20726;DHT22;10524;48.132;8.518;2023-03-01T02:05:06;-6.40;99.90
20726;DHT22;10524;48.132;8.518;2023-03-01T02:07:38;-6.40;99.90
20726;DHT22;10524;48.132;8.518;2023-03-01T02:10:05;-6.30;99.90
20726;DHT22;10524;48.132;8.518;2023-03-01T02:12:31;-6.30;99.90
20726;DHT22;10524;48.132;8.518;2023-03-01T02:14:57;-6.10;99.90
20726;DHT22;10524;48.132;8.518;2023-03-01T02:17:23;-5.90;99.90
20726;DHT22;10524;48.132;8.518;2023-03-01T02:22:34;-5.70;99.90
20726;DHT22;10524;48.132;8.518;2023-03-01T02:28:18;-5.50;99.90
20726;DHT22;10524;48.132;8.518;2023-03-01T02:30:49;-5.30;99.90
20726;DHT22;10524;48.132;8.518;2023-03-01T02:33:36;-5.20;99.90
20726;DHT22;10524;48.132;8.518;2023-03-01T02:36:06;-5.10;99.90
20726;DHT22;10524;48.132;8.518;2023-03-01T02:38:33;-4.90;99.90
20726;DHT22;10524;48.132;8.518;2023-03-01T02:41:00;-4.90;99.90
20726;DHT22;10524;48.132;8.518;2023-03-01T02:43:30;-4.90;99.90
20726;DHT22;10524;48.132;8.518;2023-03-01T02:45:59;-4.90;99.90
20726;DHT22;10524;48.132;8.518;2023-03-01T02:48:25;-4.90;99.90
20726;DHT22;10524;48.132;8.518;2023-03-01T02:54:15;-4.90;99.90
20726;DHT22;10524;48.132;8.518;2023-03-01T02:56:43;-4.80;99.90
20726;DHT22;10524;48.132;8.518;2023-03-01T02:59:09;-4.80;99.90
20726;DHT22;10524;48.132;8.518;2023-03-01T03:01:35;-4.70;99.90
20726;DHT22;10524;48.132;8.518;2023-03-01T03:04:09;-4.70;99.90
20726;DHT22;10524;48.132;8.518;2023-03-01T03:06:35;-4.60;99.90
20726;DHT22;10524;48.132;8.518;2023-03-01T03:09:03;-4.60;99.90
20726;DHT22;10524;48.132;8.518;2023-03-01T03:11:29;-4.50;99.90
20726;DHT22;10524;48.132;8.518;2023-03-01T03:13:55;-4.50;99.90
20726;DHT22;10524;48.132;8.518;2023-03-01T03:16:21;-4.40;99.90
20726;DHT22;10524;48.132;8.518;2023-03-01T03:18:47;-4.30;99.90
20726;DHT22;10524;48.132;8.518;2023-03-01T03:21:13;-4.30;99.90
20726;DHT22;10524;48.132;8.518;2023-03-01T03:23:39;-4.30;99.90
20726;DHT22;10524;48.132;8.518;2023-03-01T03:26:05;-4.20;99.90
20726;DHT22;10524;48.132;8.518;2023-03-01T03:28:32;-4.20;99.90
20726;DHT22;10524;48.132;8.518;2023-03-01T03:30:59;-4.20;99.90
20726;DHT22;10524;48.132;8.518;2023-03-01T03:33:29;-4.10;99.90
20726;DHT22;10524;48.132;8.518;2023-03-01T03:35:55;-4.00;99.90
20726;DHT22;10524;48.132;8.518;2023-03-01T03:38:21;-3.90;99.90
20726;DHT22;10524;48.132;8.518;2023-03-01T03:40:49;-3.90;99.90
20726;DHT22;10524;48.132;8.518;2023-03-01T03:43:18;-3.90;99.90
20726;DHT22;10524;48.132;8.518;2023-03-01T03:45:48;-3.80;99.90
20726;DHT22;10524;48.132;8.518;2023-03-01T03:48:15;-3.80;99.90
20726;DHT22;10524;48.132;8.518;2023-03-01T03:50:41;-3.80;99.90
20726;DHT22;10524;48.132;8.518;2023-03-01T03:53:11;-3.70;99.90
20726;DHT22;10524;48.132;8.518;2023-03-01T03:55:37;-3.70;99.90
20726;DHT22;10524;48.132;8.518;2023-03-01T03:58:05;-3.70;99.90
20726;DHT22;10524;48.132;8.518;2023-03-01T04:00:37;-3.70;99.90
20726;DHT22;10524;48.132;8.518;2023-03-01T04:03:03;-3.60;99.90
20726;DHT22;10524;48.132;8.518;2023-03-01T04:05:29;-3.60;99.90
20726;DHT22;10524;48.132;8.518;2023-03-01T04:07:55;-3.60;99.90
20726;DHT22;10524;48.132;8.518;2023-03-01T04:10:32;-3.60;99.90
20726;DHT22;10524;48.132;8.518;2023-03-01T04:12:58;-3.50;99.90
20726;DHT22;10524;48.132;8.518;2023-03-01T04:15:26;-3.60;99.90
20726;DHT22;10524;48.132;8.518;2023-03-01T04:17:53;-3.60;99.90
20726;DHT22;10524;48.132;8.518;2023-03-01T04:20:25;-3.60;99.90
20726;DHT22;10524;48.132;8.518;2023-03-01T04:22:59;-3.60;99.90
20726;DHT22;10524;48.132;8.518;2023-03-01T04:25:25;-3.60;99.90
20726;DHT22;10524;48.132;8.518;2023-03-01T04:27:51;-3.60;99.90
20726;DHT22;10524;48.132;8.518;2023-03-01T04:30:16;-3.60;99.90
20726;DHT22;10524;48.132;8.518;2023-03-01T04:32:42;-3.50;99.90
20726;DHT22;10524;48.132;8.518;2023-03-01T04:35:08;-3.50;99.90
20726;DHT22;10524;48.132;8.518;2023-03-01T04:37:34;-3.50;99.90
20726;DHT22;10524;48.132;8.518;2023-03-01T04:40:01;-3.50;99.90
20726;DHT22;10524;48.132;8.518;2023-03-01T04:42:37;-3.50;99.90
20726;DHT22;10524;48.132;8.518;2023-03-01T04:45:03;-3.50;99.90
20726;DHT22;10524;48.132;8.518;2023-03-01T04:47:42;-3.50;99.90
20726;DHT22;10524;48.132;8.518;2023-03-01T04:50:08;-3.50;99.90
20726;DHT22;10524;48.132;8.518;2023-03-01T04:52:35;-3.40;99.90
20726;DHT22;10524;48.132;8.518;2023-03-01T04:55:01;-3.40;99.90
20726;DHT22;10524;48.132;8.518;2023-03-01T04:57:29;-3.40;99.90
20726;DHT22;10524;48.132;8.518;2023-03-01T04:59:54;-3.40;99.90
20726;DHT22;10524;48.132;8.518;2023-03-01T05:02:20;-3.40;99.90
20726;DHT22;10524;48.132;8.518;2023-03-01T05:04:46;-3.40;99.90
20726;DHT22;10524;48.132;8.518;2023-03-01T05:07:11;-3.40;99.90
20726;DHT22;10524;48.132;8.518;2023-03-01T05:09:38;-3.40;99.90
20726;DHT22;10524;48.132;8.518;2023-03-01T05:12:04;-3.40;99.90
20726;DHT22;10524;48.132;8.518;2023-03-01T05:14:30;-3.40;99.90
20726;DHT22;10524;48.132;8.518;2023-03-01T05:16:56;-3.30;99.90
20726;DHT22;10524;48.132;8.518;2023-03-01T05:19:29;-3.30;99.90
20726;DHT22;10524;48.132;8.518;2023-03-01T05:21:56;-3.30;99.90
20726;DHT22;10524;48.132;8.518;2023-03-01T05:24:33;-3.30;99.90
20726;DHT22;10524;48.132;8.518;2023-03-01T05:27:00;-3.30;99.90
20726;DHT22;10524;48.132;8.518;2023-03-01T05:29:27;-3.30;99.90
20726;DHT22;10524;48.132;8.518;2023-03-01T05:31:55;-3.30;99.90
20726;DHT22;10524;48.132;8.518;2023-03-01T05:34:26;-3.20;99.90
20726;DHT22;10524;48.132;8.518;2023-03-01T05:36:52;-3.30;99.90
20726;DHT22;10524;48.132;8.518;2023-03-01T05:39:23;-3.30;99.90
20726;DHT22;10524;48.132;8.518;2023-03-01T05:41:52;-3.20;99.90
20726;DHT22;10524;48.132;8.518;2023-03-01T05:44:19;-3.30;99.90
20726;DHT22;10524;48.132;8.518;2023-03-01T05:46:45;-3.30;99.90
20726;DHT22;10524;48.132;8.518;2023-03-01T05:49:12;-3.20;99.90
20726;DHT22;10524;48.132;8.518;2023-03-01T05:51:41;-3.20;99.90
20726;DHT22;10524;48.132;8.518;2023-03-01T05:54:07;-3.20;99.90
20726;DHT22;10524;48.132;8.518;2023-03-01T05:56:37;-3.20;99.90
20726;DHT22;10524;48.132;8.518;2023-03-01T05:59:04;-3.20;99.90
20726;DHT22;10524;48.132;8.518;2023-03-01T06:01:33;-3.20;99.90
20726;DHT22;10524;48.132;8.518;2023-03-01T06:03:59;-3.20;99.90
20726;DHT22;10524;48.132;8.518;2023-03-01T06:06:25;-3.20;99.90
20726;DHT22;10524;48.132;8.518;2023-03-01T06:08:52;-3.20;99.90
20726;DHT22;10524;48.132;8.518;2023-03-01T06:11:18;-3.10;99.90
20726;DHT22;10524;48.132;8.518;2023-03-01T06:13:45;-3.10;99.90
20726;DHT22;10524;48.132;8.518;2023-03-01T06:16:11;-3.10;99.90
20726;DHT22;10524;48.132;8.518;2023-03-01T06:18:37;-3.10;99.90
20726;DHT22;10524;48.132;8.518;2023-03-01T06:21:03;-3.10;99.90
20726;DHT22;10524;48.132;8.518;2023-03-01T06:23:28;-3.20;99.90
20726;DHT22;10524;48.132;8.518;2023-03-01T06:25:54;-3.10;99.90
20726;DHT22;10524;48.132;8.518;2023-03-01T06:28:20;-3.10;99.90
20726;DHT22;10524;48.132;8.518;2023-03-01T06:30:46;-3.10;99.90
20726;DHT22;10524;48.132;8.518;2023-03-01T06:33:11;-3.10;99.90
20726;DHT22;10524;48.132;8.518;2023-03-01T06:35:37;-3.10;99.90
20726;DHT22;10524;48.132;8.518;2023-03-01T06:38:04;-3.10;99.90
20726;DHT22;10524;48.132;8.518;2023-03-01T06:40:31;-3.10;99.90
20726;DHT22;10524;48.132;8.518;2023-03-01T06:42:57;-3.10;99.90
20726;DHT22;10524;48.132;8.518;2023-03-01T06:45:24;-3.00;99.90
20726;DHT22;10524;48.132;8.518;2023-03-01T06:47:50;-3.00;99.90
20726;DHT22;10524;48.132;8.518;2023-03-01T06:50:16;-3.00;99.90
20726;DHT22;10524;48.132;8.518;2023-03-01T06:52:42;-3.00;99.90
20726;DHT22;10524;48.132;8.518;2023-03-01T06:55:11;-3.00;99.90
20726;DHT22;10524;48.132;8.518;2023-03-01T06:57:37;-3.00;99.90
20726;DHT22;10524;48.132;8.518;2023-03-01T07:00:06;-3.00;99.90
20726;DHT22;10524;48.132;8.518;2023-03-01T07:02:32;-3.00;99.90
20726;DHT22;10524;48.132;8.518;2023-03-01T07:04:58;-2.90;99.90
20726;DHT22;10524;48.132;8.518;2023-03-01T07:07:23;-2.90;99.90
20726;DHT22;10524;48.132;8.518;2023-03-01T07:09:49;-2.90;99.90
20726;DHT22;10524;48.132;8.518;2023-03-01T07:12:15;-2.90;99.90
20726;DHT22;10524;48.132;8.518;2023-03-01T07:14:41;-2.90;99.90
20726;DHT22;10524;48.132;8.518;2023-03-01T07:17:08;-2.80;99.90
20726;DHT22;10524;48.132;8.518;2023-03-01T07:19:34;-2.80;99.90
20726;DHT22;10524;48.132;8.518;2023-03-01T07:22:00;-2.80;99.90
20726;DHT22;10524;48.132;8.518;2023-03-01T07:24:25;-2.80;99.90
20726;DHT22;10524;48.132;8.518;2023-03-01T07:26:52;-2.70;99.90
20726;DHT22;10524;48.132;8.518;2023-03-01T07:29:19;-2.70;99.90
20726;DHT22;10524;48.132;8.518;2023-03-01T07:31:44;-2.70;99.90
20726;DHT22;10524;48.132;8.518;2023-03-01T07:34:11;-2.70;99.90
20726;DHT22;10524;48.132;8.518;2023-03-01T07:36:37;-2.70;99.90
20726;DHT22;10524;48.132;8.518;2023-03-01T07:39:03;-2.70;99.90
20726;DHT22;10524;48.132;8.518;2023-03-01T07:41:29;-2.70;99.90
20726;DHT22;10524;48.132;8.518;2023-03-01T07:43:55;-2.60;99.90
20726;DHT22;10524;48.132;8.518;2023-03-01T07:46:21;-2.50;99.90
20726;DHT22;10524;48.132;8.518;2023-03-01T07:48:47;-2.50;99.90
20726;DHT22;10524;48.132;8.518;2023-03-01T07:51:13;-2.40;99.90
20726;DHT22;10524;48.132;8.518;2023-03-01T07:53:39;-2.30;99.90
20726;DHT22;10524;48.132;8.518;2023-03-01T07:56:08;-2.30;99.90
20726;DHT22;10524;48.132;8.518;2023-03-01T07:58:35;-2.20;99.90
20726;DHT22;10524;48.132;8.518;2023-03-01T08:01:02;-2.20;99.90
20726;DHT22;10524;48.132;8.518;2023-03-01T08:03:28;-2.20;99.90
20726;DHT22;10524;48.132;8.518;2023-03-01T08:05:54;-2.20;99.90
20726;DHT22;10524;48.132;8.518;2023-03-01T08:08:19;-2.00;99.90
20726;DHT22;10524;48.132;8.518;2023-03-01T08:10:45;-1.90;99.90
20726;DHT22;10524;48.132;8.518;2023-03-01T08:13:11;-1.90;99.90
20726;DHT22;10524;48.132;8.518;2023-03-01T08:15:36;-1.80;99.90
20726;DHT22;10524;48.132;8.518;2023-03-01T08:18:02;-1.70;99.90
20726;DHT22;10524;48.132;8.518;2023-03-01T08:20:28;-1.60;99.90
20726;DHT22;10524;48.132;8.518;2023-03-01T08:22:53;-1.50;99.90
20726;DHT22;10524;48.132;8.518;2023-03-01T08:25:19;-1.50;99.90
20726;DHT22;10524;48.132;8.518;2023-03-01T08:27:44;-1.40;99.90
20726;DHT22;10524;48.132;8.518;2023-03-01T08:30:10;-1.30;99.90
20726;DHT22;10524;48.132;8.518;2023-03-01T08:32:38;-1.20;99.90
20726;DHT22;10524;48.132;8.518;2023-03-01T08:35:04;-1.10;99.90
20726;DHT22;10524;48.132;8.518;2023-03-01T08:37:29;-1.10;99.90
20726;DHT22;10524;48.132;8.518;2023-03-01T08:39:58;-1.30;99.90
20726;DHT22;10524;48.132;8.518;2023-03-01T08:42:24;-1.20;99.90
20726;DHT22;10524;48.132;8.518;2023-03-01T08:44:49;-1.20;99.90
20726;DHT22;10524;48.132;8.518;2023-03-01T08:47:15;-1.30;99.90
20726;DHT22;10524;48.132;8.518;2023-03-01T08:49:40;-1.20;99.90
20726;DHT22;10524;48.132;8.518;2023-03-01T08:52:06;-1.20;99.90
20726;DHT22;10524;48.132;8.518;2023-03-01T08:54:32;-1.20;99.90
20726;DHT22;10524;48.132;8.518;2023-03-01T08:56:57;-1.40;99.90
20726;DHT22;10524;48.132;8.518;2023-03-01T08:59:25;-1.30;99.90
20726;DHT22;10524;48.132;8.518;2023-03-01T09:01:50;-1.10;99.90
20726;DHT22;10524;48.132;8.518;2023-03-01T09:04:16;-0.80;99.90
20726;DHT22;10524;48.132;8.518;2023-03-01T09:06:42;-0.70;99.90
20726;DHT22;10524;48.132;8.518;2023-03-01T09:09:13;-0.60;99.90
20726;DHT22;10524;48.132;8.518;2023-03-01T09:11:40;-0.80;99.90
20726;DHT22;10524;48.132;8.518;2023-03-01T09:14:05;-0.60;99.90
20726;DHT22;10524;48.132;8.518;2023-03-01T09:16:31;-0.50;99.90
20726;DHT22;10524;48.132;8.518;2023-03-01T09:19:02;-0.40;99.90
20726;DHT22;10524;48.132;8.518;2023-03-01T09:21:27;-0.40;99.90
20726;DHT22;10524;48.132;8.518;2023-03-01T09:23:55;-0.40;99.90
20726;DHT22;10524;48.132;8.518;2023-03-01T09:26:22;-0.20;99.90
20726;DHT22;10524;48.132;8.518;2023-03-01T09:28:50;-0.10;99.90
20726;DHT22;10524;48.132;8.518;2023-03-01T09:31:18;0.10;99.90
20726;DHT22;10524;48.132;8.518;2023-03-01T09:33:47;0.20;99.90
20726;DHT22;10524;48.132;8.518;2023-03-01T09:36:15;0.20;99.90
20726;DHT22;10524;48.132;8.518;2023-03-01T09:38:41;0.00;99.90
20726;DHT22;10524;48.132;8.518;2023-03-01T09:46:43;0.10;99.90
20726;DHT22;10524;48.132;8.518;2023-03-01T09:49:27;0.20;99.90
20726;DHT22;10524;48.132;8.518;2023-03-01T09:54:44;0.30;99.90
20726;DHT22;10524;48.132;8.518;2023-03-01T10:00:00;0.60;99.90
20726;DHT22;10524;48.132;8.518;2023-03-01T10:02:32;0.50;99.90
20726;DHT22;10524;48.132;8.518;2023-03-01T10:05:19;0.60;99.90
20726;DHT22;10524;48.132;8.518;2023-03-01T10:10:38;0.90;99.90
20726;DHT22;10524;48.132;8.518;2023-03-01T10:13:17;0.80;99.90
20726;DHT22;10524;48.132;8.518;2023-03-01T10:16:11;1.00;99.90
20726;DHT22;10524;48.132;8.518;2023-03-01T10:18:35;1.10;99.90
20726;DHT22;10524;48.132;8.518;2023-03-01T10:21:17;1.50;99.90
20726;DHT22;10524;48.132;8.518;2023-03-01T10:23:44;1.60;99.90
20726;DHT22;10524;48.132;8.518;2023-03-01T10:28:54;2.10;99.90
20726;DHT22;10524;48.132;8.518;2023-03-01T10:31:26;2.30;99.90
20726;DHT22;10524;48.132;8.518;2023-03-01T10:33:55;2.40;99.90
20726;DHT22;10524;48.132;8.518;2023-03-01T10:36:23;2.30;99.90
20726;DHT22;10524;48.132;8.518;2023-03-01T10:38:54;2.20;99.90
20726;DHT22;10524;48.132;8.518;2023-03-01T10:41:21;2.30;99.90
20726;DHT22;10524;48.132;8.518;2023-03-01T10:43:53;2.10;99.90
20726;DHT22;10524;48.132;8.518;2023-03-01T10:46:39;1.90;99.90
20726;DHT22;10524;48.132;8.518;2023-03-01T10:49:19;1.80;99.90
20726;DHT22;10524;48.132;8.518;2023-03-01T10:51:48;2.10;99.90
20726;DHT22;10524;48.132;8.518;2023-03-01T10:54:32;2.40;99.90
20726;DHT22;10524;48.132;8.518;2023-03-01T10:57:03;2.70;99.90
20726;DHT22;10524;48.132;8.518;2023-03-01T10:59:35;2.90;99.90
20726;DHT22;10524;48.132;8.518;2023-03-01T11:02:23;2.40;99.90
20726;DHT22;10524;48.132;8.518;2023-03-01T11:05:01;2.40;99.90
20726;DHT22;10524;48.132;8.518;2023-03-01T11:07:27;2.50;99.90
20726;DHT22;10524;48.132;8.518;2023-03-01T11:09:53;2.70;99.90
20726;DHT22;10524;48.132;8.518;2023-03-01T11:12:20;2.90;99.90
20726;DHT22;10524;48.132;8.518;2023-03-01T11:14:55;2.30;99.90
20726;DHT22;10524;48.132;8.518;2023-03-01T11:17:28;2.10;99.90
20726;DHT22;10524;48.132;8.518;2023-03-01T11:20:02;2.20;99.90
20726;DHT22;10524;48.132;8.518;2023-03-01T11:22:30;2.00;99.90
20726;DHT22;10524;48.132;8.518;2023-03-01T11:24:58;2.30;99.90
20726;DHT22;10524;48.132;8.518;2023-03-01T11:27:27;2.70;99.90
20726;DHT22;10524;48.132;8.518;2023-03-01T11:30:05;3.10;99.90
20726;DHT22;10524;48.132;8.518;2023-03-01T11:33:10;3.30;99.90
20726;DHT22;10524;48.132;8.518;2023-03-01T11:35:42;3.60;99.90
20726;DHT22;10524;48.132;8.518;2023-03-01T11:38:25;3.50;99.90
20726;DHT22;10524;48.132;8.518;2023-03-01T11:41:18;3.40;99.90
20726;DHT22;10524;48.132;8.518;2023-03-01T11:43:55;3.70;99.90
20726;DHT22;10524;48.132;8.518;2023-03-01T11:51:52;3.70;99.90
20726;DHT22;10524;48.132;8.518;2023-03-01T12:05:48;4.00;99.90
20726;DHT22;10524;48.132;8.518;2023-03-01T12:08:41;3.70;99.90
20726;DHT22;10524;48.132;8.518;2023-03-01T12:11:23;3.50;99.90
20726;DHT22;10524;48.132;8.518;2023-03-01T12:17:13;4.20;99.90
20726;DHT22;10524;48.132;8.518;2023-03-01T12:23:23;5.30;99.90
20726;DHT22;10524;48.132;8.518;2023-03-01T12:28:04;7.60;99.90
20726;DHT22;10524;48.132;8.518;2023-03-01T12:33:52;6.10;99.90
20726;DHT22;10524;48.132;8.518;2023-03-01T12:39:15;7.40;99.90
20726;DHT22;10524;48.132;8.518;2023-03-01T12:44:33;9.10;99.90
20726;DHT22;10524;48.132;8.518;2023-03-01T12:47:23;11.40;99.90
20726;DHT22;10524;48.132;8.518;2023-03-01T12:49:58;12.20;99.90
20726;DHT22;10524;48.132;8.518;2023-03-01T12:52:46;11.40;99.90
20726;DHT22;10524;48.132;8.518;2023-03-01T12:55:33;11.40;99.90
20726;DHT22;10524;48.132;8.518;2023-03-01T12:58:16;10.40;99.90
20726;DHT22;10524;48.132;8.518;2023-03-01T13:15:40;6.30;99.90
20726;DHT22;10524;48.132;8.518;2023-03-01T13:31:04;4.60;99.90
20726;DHT22;10524;48.132;8.518;2023-03-01T13:35:58;4.40;99.90
20726;DHT22;10524;48.132;8.518;2023-03-01T13:49:55;4.40;99.90
20726;DHT22;10524;48.132;8.518;2023-03-01T13:52:42;4.40;99.90
20726;DHT22;10524;48.132;8.518;2023-03-01T13:57:43;4.60;99.90
20726;DHT22;10524;48.132;8.518;2023-03-01T14:05:37;4.50;99.90
20726;DHT22;10524;48.132;8.518;2023-03-01T14:08:04;4.60;99.90
20726;DHT22;10524;48.132;8.518;2023-03-01T14:10:49;4.40;99.90
20726;DHT22;10524;48.132;8.518;2023-03-01T14:16:38;4.40;99.90
20726;DHT22;10524;48.132;8.518;2023-03-01T14:19:20;4.60;99.90
20726;DHT22;10524;48.132;8.518;2023-03-01T14:22:20;4.60;99.90
20726;DHT22;10524;48.132;8.518;2023-03-01T14:25:05;4.60;99.90
20726;DHT22;10524;48.132;8.518;2023-03-01T14:27:40;4.60;99.90
20726;DHT22;10524;48.132;8.518;2023-03-01T14:30:40;4.70;99.90
20726;DHT22;10524;48.132;8.518;2023-03-01T14:36:13;4.60;99.90
20726;DHT22;10524;48.132;8.518;2023-03-01T14:38:46;4.80;99.90
20726;DHT22;10524;48.132;8.518;2023-03-01T14:41:18;4.80;99.90
20726;DHT22;10524;48.132;8.518;2023-03-01T14:43:50;4.80;99.90
20726;DHT22;10524;48.132;8.518;2023-03-01T14:46:23;4.70;99.90
20726;DHT22;10524;48.132;8.518;2023-03-01T14:48:51;4.80;99.90
20726;DHT22;10524;48.132;8.518;2023-03-01T14:51:18;4.80;99.90
20726;DHT22;10524;48.132;8.518;2023-03-01T14:53:44;4.80;99.90
20726;DHT22;10524;48.132;8.518;2023-03-01T14:56:14;4.80;99.90
20726;DHT22;10524;48.132;8.518;2023-03-01T14:58:41;4.70;99.90
20726;DHT22;10524;48.132;8.518;2023-03-01T15:01:07;4.70;99.90
20726;DHT22;10524;48.132;8.518;2023-03-01T15:03:47;4.60;99.90
20726;DHT22;10524;48.132;8.518;2023-03-01T15:06:22;4.50;99.90
20726;DHT22;10524;48.132;8.518;2023-03-01T15:08:50;4.40;99.90
20726;DHT22;10524;48.132;8.518;2023-03-01T15:11:38;4.40;99.90
20726;DHT22;10524;48.132;8.518;2023-03-01T15:14:40;4.50;99.90
20726;DHT22;10524;48.132;8.518;2023-03-01T15:17:37;4.50;99.90
20726;DHT22;10524;48.132;8.518;2023-03-01T15:20:18;4.50;99.90
20726;DHT22;10524;48.132;8.518;2023-03-01T15:22:46;4.50;99.90
20726;DHT22;10524;48.132;8.518;2023-03-01T15:25:22;4.40;99.90
20726;DHT22;10524;48.132;8.518;2023-03-01T15:27:50;4.30;99.90
20726;DHT22;10524;48.132;8.518;2023-03-01T15:30:23;4.30;99.90
20726;DHT22;10524;48.132;8.518;2023-03-01T15:35:51;4.30;99.90
20726;DHT22;10524;48.132;8.518;2023-03-01T15:41:32;4.20;99.90
20726;DHT22;10524;48.132;8.518;2023-03-01T15:44:27;4.20;99.90
20726;DHT22;10524;48.132;8.518;2023-03-01T15:46:53;4.20;99.90
20726;DHT22;10524;48.132;8.518;2023-03-01T15:49:36;4.10;99.90
20726;DHT22;10524;48.132;8.518;2023-03-01T15:52:03;4.00;99.90
20726;DHT22;10524;48.132;8.518;2023-03-01T15:54:29;4.00;99.90
20726;DHT22;10524;48.132;8.518;2023-03-01T15:56:55;4.00;99.90
20726;DHT22;10524;48.132;8.518;2023-03-01T15:59:21;3.90;99.90
20726;DHT22;10524;48.132;8.518;2023-03-01T16:01:48;3.90;99.90
20726;DHT22;10524;48.132;8.518;2023-03-01T16:04:17;3.80;99.90
20726;DHT22;10524;48.132;8.518;2023-03-01T16:06:49;3.80;99.90
20726;DHT22;10524;48.132;8.518;2023-03-01T16:09:23;3.70;99.90
20726;DHT22;10524;48.132;8.518;2023-03-01T16:11:49;3.70;99.90
20726;DHT22;10524;48.132;8.518;2023-03-01T16:14:16;3.60;99.90
20726;DHT22;10524;48.132;8.518;2023-03-01T16:16:42;3.60;99.90
20726;DHT22;10524;48.132;8.518;2023-03-01T16:19:08;3.60;99.90
20726;DHT22;10524;48.132;8.518;2023-03-01T16:21:34;3.50;99.90
20726;DHT22;10524;48.132;8.518;2023-03-01T16:24:00;3.40;99.90
20726;DHT22;10524;48.132;8.518;2023-03-01T16:26:26;3.40;99.90
20726;DHT22;10524;48.132;8.518;2023-03-01T16:28:54;3.30;99.90
20726;DHT22;10524;48.132;8.518;2023-03-01T16:31:21;3.30;99.90
20726;DHT22;10524;48.132;8.518;2023-03-01T16:33:47;3.10;99.90
20726;DHT22;10524;48.132;8.518;2023-03-01T16:36:17;3.00;99.90
20726;DHT22;10524;48.132;8.518;2023-03-01T16:38:43;3.00;99.90
20726;DHT22;10524;48.132;8.518;2023-03-01T16:41:15;2.90;99.90
20726;DHT22;10524;48.132;8.518;2023-03-01T16:43:42;2.80;99.90
20726;DHT22;10524;48.132;8.518;2023-03-01T16:46:22;2.80;99.90
20726;DHT22;10524;48.132;8.518;2023-03-01T16:48:49;2.70;99.90
20726;DHT22;10524;48.132;8.518;2023-03-01T16:51:15;2.60;99.90
20726;DHT22;10524;48.132;8.518;2023-03-01T16:53:41;2.50;99.90
20726;DHT22;10524;48.132;8.518;2023-03-01T16:56:09;2.30;99.90
20726;DHT22;10524;48.132;8.518;2023-03-01T16:58:36;2.20;99.90
20726;DHT22;10524;48.132;8.518;2023-03-01T17:01:20;2.20;99.90
20726;DHT22;10524;48.132;8.518;2023-03-01T17:03:51;2.00;99.90
20726;DHT22;10524;48.132;8.518;2023-03-01T17:06:19;1.90;99.90
20726;DHT22;10524;48.132;8.518;2023-03-01T17:08:46;1.80;99.90
20726;DHT22;10524;48.132;8.518;2023-03-01T17:11:15;1.70;99.90
20726;DHT22;10524;48.132;8.518;2023-03-01T17:13:42;1.60;99.90
20726;DHT22;10524;48.132;8.518;2023-03-01T17:16:10;1.50;99.90
20726;DHT22;10524;48.132;8.518;2023-03-01T17:18:37;1.40;99.90
20726;DHT22;10524;48.132;8.518;2023-03-01T17:21:04;1.30;99.90
20726;DHT22;10524;48.132;8.518;2023-03-01T17:23:30;1.30;99.90
20726;DHT22;10524;48.132;8.518;2023-03-01T17:25:56;1.30;99.90
20726;DHT22;10524;48.132;8.518;2023-03-01T17:28:24;1.30;99.90
20726;DHT22;10524;48.132;8.518;2023-03-01T17:30:50;1.30;99.90
20726;DHT22;10524;48.132;8.518;2023-03-01T17:33:16;1.40;99.90
20726;DHT22;10524;48.132;8.518;2023-03-01T17:35:42;1.40;99.90
20726;DHT22;10524;48.132;8.518;2023-03-01T17:38:10;1.30;99.90
20726;DHT22;10524;48.132;8.518;2023-03-01T17:40:36;1.20;99.90
20726;DHT22;10524;48.132;8.518;2023-03-01T17:43:04;1.00;99.90
20726;DHT22;10524;48.132;8.518;2023-03-01T17:45:29;0.70;99.90
20726;DHT22;10524;48.132;8.518;2023-03-01T17:47:55;0.60;99.90
20726;DHT22;10524;48.132;8.518;2023-03-01T17:50:21;0.60;99.90
20726;DHT22;10524;48.132;8.518;2023-03-01T17:52:46;0.70;99.90
20726;DHT22;10524;48.132;8.518;2023-03-01T17:55:12;0.70;99.90
20726;DHT22;10524;48.132;8.518;2023-03-01T17:57:41;0.70;99.90
20726;DHT22;10524;48.132;8.518;2023-03-01T18:00:09;0.70;99.90